sensor_id;sensor_type;location;lat;lon;timestamp;temperature;humidity
46091;DHT22;31826;53.572;10.170;2022-10-16T00:01:19;14.10;99.90
46091;DHT22;31826;53.572;10.170;2022-10-16T00:03:46;14.10;99.90
46091;DHT22;31826;53.572;10.170;2022-10-16T00:06:13;14.00;99.90
46091;DHT22;31826;53.572;10.170;2022-10-16T00:08:40;13.90;99.90
46091;DHT22;31826;53.572;10.170;2022-10-16T00:11:09;14.00;99.90
46091;DHT22;31826;53.572;10.170;2022-10-16T00:13:36;14.00;99.90
46091;DHT22;31826;53.572;10.170;2022-10-16T00:16:03;13.90;99.90
46091;DHT22;31826;53.572;10.170;2022-10-16T00:18:29;13.90;99.90
46091;DHT22;31826;53.572;10.170;2022-10-16T00:20:56;13.90;99.90
46091;DHT22;31826;53.572;10.170;2022-10-16T00:23:26;13.80;99.90
46091;DHT22;31826;53.572;10.170;2022-10-16T00:26:01;13.80;99.90
46091;DHT22;31826;53.572;10.170;2022-10-16T00:28:26;13.70;99.90
46091;DHT22;31826;53.572;10.170;2022-10-16T00:30:53;13.70;99.90
46091;DHT22;31826;53.572;10.170;2022-10-16T00:33:19;13.70;99.90
46091;DHT22;31826;53.572;10.170;2022-10-16T00:35:45;13.50;99.90
46091;DHT22;31826;53.572;10.170;2022-10-16T00:38:11;13.50;99.90
46091;DHT22;31826;53.572;10.170;2022-10-16T00:40:36;13.50;99.90
46091;DHT22;31826;53.572;10.170;2022-10-16T00:43:02;13.50;99.90
46091;DHT22;31826;53.572;10.170;2022-10-16T00:45:30;13.50;99.90
46091;DHT22;31826;53.572;10.170;2022-10-16T00:47:56;13.50;99.90
46091;DHT22;31826;53.572;10.170;2022-10-16T00:50:33;13.50;99.90
46091;DHT22;31826;53.572;10.170;2022-10-16T00:53:00;13.40;99.90
46091;DHT22;31826;53.572;10.170;2022-10-16T00:55:27;13.40;99.90
46091;DHT22;31826;53.572;10.170;2022-10-16T00:57:56;13.30;99.90
46091;DHT22;31826;53.572;10.170;2022-10-16T01:00:25;13.30;99.90
46091;DHT22;31826;53.572;10.170;2022-10-16T01:02:55;13.20;99.90
46091;DHT22;31826;53.572;10.170;2022-10-16T01:05:24;13.20;99.90
46091;DHT22;31826;53.572;10.170;2022-10-16T01:10:57;13.20;99.90
46091;DHT22;31826;53.572;10.170;2022-10-16T01:13:29;13.20;99.90
46091;DHT22;31826;53.572;10.170;2022-10-16T01:15:59;13.20;99.90
46091;DHT22;31826;53.572;10.170;2022-10-16T01:18:37;13.20;99.90
46091;DHT22;31826;53.572;10.170;2022-10-16T01:21:10;13.20;99.90
46091;DHT22;31826;53.572;10.170;2022-10-16T01:24:01;13.10;99.90
46091;DHT22;31826;53.572;10.170;2022-10-16T01:29:35;13.20;99.90
46091;DHT22;31826;53.572;10.170;2022-10-16T01:32:31;13.20;99.90
46091;DHT22;31826;53.572;10.170;2022-10-16T01:35:22;13.20;99.90
46091;DHT22;31826;53.572;10.170;2022-10-16T01:40:27;13.30;99.90
46091;DHT22;31826;53.572;10.170;2022-10-16T01:43:00;13.30;99.90
46091;DHT22;31826;53.572;10.170;2022-10-16T01:45:31;13.40;99.90
46091;DHT22;31826;53.572;10.170;2022-10-16T01:48:00;13.30;99.90
46091;DHT22;31826;53.572;10.170;2022-10-16T01:50:32;13.30;99.90
46091;DHT22;31826;53.572;10.170;2022-10-16T01:52:59;13.30;99.90
46091;DHT22;31826;53.572;10.170;2022-10-16T01:55:33;13.20;99.90
46091;DHT22;31826;53.572;10.170;2022-10-16T01:58:02;13.20;99.90
46091;DHT22;31826;53.572;10.170;2022-10-16T02:00:29;13.10;99.90
46091;DHT22;31826;53.572;10.170;2022-10-16T02:02:57;13.10;99.90
46091;DHT22;31826;53.572;10.170;2022-10-16T02:05:32;13.10;99.90
46091;DHT22;31826;53.572;10.170;2022-10-16T02:07:59;13.10;99.90
46091;DHT22;31826;53.572;10.170;2022-10-16T02:10:25;13.00;99.90
46091;DHT22;31826;53.572;10.170;2022-10-16T02:13:06;13.00;99.90
46091;DHT22;31826;53.572;10.170;2022-10-16T02:15:34;13.00;99.90
46091;DHT22;31826;53.572;10.170;2022-10-16T02:18:02;13.00;99.90
46091;DHT22;31826;53.572;10.170;2022-10-16T02:20:34;13.10;99.90
46091;DHT22;31826;53.572;10.170;2022-10-16T02:23:03;13.00;99.90
46091;DHT22;31826;53.572;10.170;2022-10-16T02:25:35;13.00;99.90
46091;DHT22;31826;53.572;10.170;2022-10-16T02:28:17;12.90;99.90
46091;DHT22;31826;53.572;10.170;2022-10-16T02:30:49;12.90;99.90
46091;DHT22;31826;53.572;10.170;2022-10-16T02:33:18;12.80;99.90
46091;DHT22;31826;53.572;10.170;2022-10-16T02:35:46;12.80;99.90
46091;DHT22;31826;53.572;10.170;2022-10-16T02:38:14;12.80;99.90
46091;DHT22;31826;53.572;10.170;2022-10-16T02:40:41;12.80;99.90
46091;DHT22;31826;53.572;10.170;2022-10-16T02:43:07;12.80;99.90
46091;DHT22;31826;53.572;10.170;2022-10-16T02:45:33;12.80;99.90
46091;DHT22;31826;53.572;10.170;2022-10-16T02:47:59;12.80;99.90
46091;DHT22;31826;53.572;10.170;2022-10-16T02:50:24;12.70;99.90
46091;DHT22;31826;53.572;10.170;2022-10-16T02:52:50;12.70;99.90
46091;DHT22;31826;53.572;10.170;2022-10-16T02:55:16;12.60;99.90
46091;DHT22;31826;53.572;10.170;2022-10-16T02:57:42;12.70;99.90
46091;DHT22;31826;53.572;10.170;2022-10-16T03:00:13;12.80;99.90
46091;DHT22;31826;53.572;10.170;2022-10-16T03:02:39;12.70;99.90
46091;DHT22;31826;53.572;10.170;2022-10-16T03:05:06;12.70;99.90
46091;DHT22;31826;53.572;10.170;2022-10-16T03:07:31;12.60;99.90
46091;DHT22;31826;53.572;10.170;2022-10-16T03:09:57;12.60;99.90
46091;DHT22;31826;53.572;10.170;2022-10-16T03:12:26;12.50;99.90
46091;DHT22;31826;53.572;10.170;2022-10-16T03:14:52;12.60;99.90
46091;DHT22;31826;53.572;10.170;2022-10-16T03:17:18;12.60;99.90
46091;DHT22;31826;53.572;10.170;2022-10-16T03:19:44;12.50;99.90
46091;DHT22;31826;53.572;10.170;2022-10-16T03:22:09;12.50;99.90
46091;DHT22;31826;53.572;10.170;2022-10-16T03:24:35;12.50;99.90
46091;DHT22;31826;53.572;10.170;2022-10-16T03:27:01;12.50;99.90
46091;DHT22;31826;53.572;10.170;2022-10-16T03:29:27;12.40;99.90
46091;DHT22;31826;53.572;10.170;2022-10-16T03:31:55;12.40;99.90
46091;DHT22;31826;53.572;10.170;2022-10-16T03:34:21;12.40;99.90
46091;DHT22;31826;53.572;10.170;2022-10-16T03:36:47;12.40;99.90
46091;DHT22;31826;53.572;10.170;2022-10-16T03:39:13;12.40;99.90
46091;DHT22;31826;53.572;10.170;2022-10-16T03:41:38;12.40;99.90
46091;DHT22;31826;53.572;10.170;2022-10-16T03:44:04;12.40;99.90
46091;DHT22;31826;53.572;10.170;2022-10-16T03:46:30;12.40;99.90
46091;DHT22;31826;53.572;10.170;2022-10-16T03:48:55;12.30;99.90
46091;DHT22;31826;53.572;10.170;2022-10-16T03:51:21;12.40;99.90
46091;DHT22;31826;53.572;10.170;2022-10-16T03:53:47;12.40;99.90
46091;DHT22;31826;53.572;10.170;2022-10-16T03:56:13;12.30;99.90
46091;DHT22;31826;53.572;10.170;2022-10-16T03:58:38;12.30;99.90
46091;DHT22;31826;53.572;10.170;2022-10-16T04:01:04;12.20;99.90
46091;DHT22;31826;53.572;10.170;2022-10-16T04:03:30;12.20;99.90
46091;DHT22;31826;53.572;10.170;2022-10-16T04:05:55;12.20;99.90
46091;DHT22;31826;53.572;10.170;2022-10-16T04:08:22;12.20;99.90
46091;DHT22;31826;53.572;10.170;2022-10-16T04:10:47;12.10;99.90
46091;DHT22;31826;53.572;10.170;2022-10-16T04:13:14;12.10;99.90
46091;DHT22;31826;53.572;10.170;2022-10-16T04:15:40;12.10;99.90
46091;DHT22;31826;53.572;10.170;2022-10-16T04:18:06;12.10;99.90
46091;DHT22;31826;53.572;10.170;2022-10-16T04:20:33;12.10;99.90
46091;DHT22;31826;53.572;10.170;2022-10-16T04:22:59;12.10;99.90
46091;DHT22;31826;53.572;10.170;2022-10-16T04:25:24;12.10;99.90
46091;DHT22;31826;53.572;10.170;2022-10-16T04:27:52;12.10;99.90
46091;DHT22;31826;53.572;10.170;2022-10-16T04:30:19;12.10;99.90
46091;DHT22;31826;53.572;10.170;2022-10-16T04:32:48;12.00;99.90
46091;DHT22;31826;53.572;10.170;2022-10-16T04:35:15;12.10;99.90
46091;DHT22;31826;53.572;10.170;2022-10-16T04:37:41;12.10;99.90
46091;DHT22;31826;53.572;10.170;2022-10-16T04:40:07;12.10;99.90
46091;DHT22;31826;53.572;10.170;2022-10-16T04:42:33;12.10;99.90
46091;DHT22;31826;53.572;10.170;2022-10-16T04:44:58;12.10;99.90
46091;DHT22;31826;53.572;10.170;2022-10-16T04:47:24;12.00;99.90
46091;DHT22;31826;53.572;10.170;2022-10-16T04:49:50;12.00;99.90
46091;DHT22;31826;53.572;10.170;2022-10-16T04:52:15;12.00;99.90
46091;DHT22;31826;53.572;10.170;2022-10-16T04:54:41;12.00;99.90
46091;DHT22;31826;53.572;10.170;2022-10-16T04:57:07;11.90;99.90
46091;DHT22;31826;53.572;10.170;2022-10-16T04:59:33;11.90;99.90
46091;DHT22;31826;53.572;10.170;2022-10-16T05:01:58;11.90;99.90
46091;DHT22;31826;53.572;10.170;2022-10-16T05:04:24;11.90;99.90
46091;DHT22;31826;53.572;10.170;2022-10-16T05:06:50;11.90;99.90
46091;DHT22;31826;53.572;10.170;2022-10-16T05:09:16;11.90;99.90
46091;DHT22;31826;53.572;10.170;2022-10-16T05:11:42;11.80;99.90
46091;DHT22;31826;53.572;10.170;2022-10-16T05:14:07;11.90;99.90
46091;DHT22;31826;53.572;10.170;2022-10-16T05:16:33;11.90;99.90
46091;DHT22;31826;53.572;10.170;2022-10-16T05:18:59;11.90;99.90
46091;DHT22;31826;53.572;10.170;2022-10-16T05:21:24;11.80;99.90
46091;DHT22;31826;53.572;10.170;2022-10-16T05:23:50;11.90;99.90
46091;DHT22;31826;53.572;10.170;2022-10-16T05:26:16;11.80;99.90
46091;DHT22;31826;53.572;10.170;2022-10-16T05:28:41;11.80;99.90
46091;DHT22;31826;53.572;10.170;2022-10-16T05:31:08;11.80;99.90
46091;DHT22;31826;53.572;10.170;2022-10-16T05:33:34;11.80;99.90
46091;DHT22;31826;53.572;10.170;2022-10-16T05:36:06;11.80;99.90
46091;DHT22;31826;53.572;10.170;2022-10-16T05:38:33;11.90;99.90
46091;DHT22;31826;53.572;10.170;2022-10-16T05:40:59;11.70;99.90
46091;DHT22;31826;53.572;10.170;2022-10-16T05:43:26;11.80;99.90
46091;DHT22;31826;53.572;10.170;2022-10-16T05:46:00;11.70;99.90
46091;DHT22;31826;53.572;10.170;2022-10-16T05:48:26;11.70;99.90
46091;DHT22;31826;53.572;10.170;2022-10-16T05:51:04;11.70;99.90
46091;DHT22;31826;53.572;10.170;2022-10-16T05:53:32;11.60;99.90
46091;DHT22;31826;53.572;10.170;2022-10-16T05:55:58;11.60;99.90
46091;DHT22;31826;53.572;10.170;2022-10-16T05:58:27;11.60;99.90
46091;DHT22;31826;53.572;10.170;2022-10-16T06:00:58;11.60;99.90
46091;DHT22;31826;53.572;10.170;2022-10-16T06:03:25;11.60;99.90
46091;DHT22;31826;53.572;10.170;2022-10-16T06:05:51;11.60;99.90
46091;DHT22;31826;53.572;10.170;2022-10-16T06:08:18;11.60;99.90
46091;DHT22;31826;53.572;10.170;2022-10-16T06:10:45;11.50;99.90
46091;DHT22;31826;53.572;10.170;2022-10-16T06:13:12;11.50;99.90
46091;DHT22;31826;53.572;10.170;2022-10-16T06:15:39;11.60;99.90
46091;DHT22;31826;53.572;10.170;2022-10-16T06:18:10;11.60;99.90
46091;DHT22;31826;53.572;10.170;2022-10-16T06:20:36;11.60;99.90
46091;DHT22;31826;53.572;10.170;2022-10-16T06:23:03;11.70;99.90
46091;DHT22;31826;53.572;10.170;2022-10-16T06:25:30;11.70;99.90
46091;DHT22;31826;53.572;10.170;2022-10-16T06:27:56;11.70;99.90
46091;DHT22;31826;53.572;10.170;2022-10-16T06:30:22;11.70;99.90
46091;DHT22;31826;53.572;10.170;2022-10-16T06:32:48;11.70;99.90
46091;DHT22;31826;53.572;10.170;2022-10-16T06:35:13;11.70;99.90
46091;DHT22;31826;53.572;10.170;2022-10-16T06:37:39;11.70;99.90
46091;DHT22;31826;53.572;10.170;2022-10-16T06:40:05;11.70;99.90
46091;DHT22;31826;53.572;10.170;2022-10-16T06:42:31;11.50;99.90
46091;DHT22;31826;53.572;10.170;2022-10-16T06:44:57;11.70;99.90
46091;DHT22;31826;53.572;10.170;2022-10-16T06:47:23;11.70;99.90
46091;DHT22;31826;53.572;10.170;2022-10-16T06:49:49;11.70;99.90
46091;DHT22;31826;53.572;10.170;2022-10-16T06:52:14;11.70;99.90
46091;DHT22;31826;53.572;10.170;2022-10-16T06:54:40;11.70;99.90
46091;DHT22;31826;53.572;10.170;2022-10-16T06:57:06;11.70;99.90
46091;DHT22;31826;53.572;10.170;2022-10-16T06:59:31;11.60;99.90
46091;DHT22;31826;53.572;10.170;2022-10-16T07:01:57;11.70;99.90
46091;DHT22;31826;53.572;10.170;2022-10-16T07:04:23;11.80;99.90
46091;DHT22;31826;53.572;10.170;2022-10-16T07:06:48;11.80;99.90
46091;DHT22;31826;53.572;10.170;2022-10-16T07:09:14;11.90;99.90
46091;DHT22;31826;53.572;10.170;2022-10-16T07:11:40;12.00;99.90
46091;DHT22;31826;53.572;10.170;2022-10-16T07:14:16;12.10;99.90
46091;DHT22;31826;53.572;10.170;2022-10-16T07:16:42;12.20;99.90
46091;DHT22;31826;53.572;10.170;2022-10-16T07:19:08;12.30;99.90
46091;DHT22;31826;53.572;10.170;2022-10-16T07:21:34;12.40;99.90
46091;DHT22;31826;53.572;10.170;2022-10-16T07:24:05;12.50;99.90
46091;DHT22;31826;53.572;10.170;2022-10-16T07:26:34;12.60;99.90
46091;DHT22;31826;53.572;10.170;2022-10-16T07:29:01;12.80;99.90
46091;DHT22;31826;53.572;10.170;2022-10-16T07:31:27;12.90;99.90
46091;DHT22;31826;53.572;10.170;2022-10-16T07:33:54;13.00;99.90
46091;DHT22;31826;53.572;10.170;2022-10-16T07:36:20;13.10;99.90
46091;DHT22;31826;53.572;10.170;2022-10-16T07:38:47;13.20;99.90
46091;DHT22;31826;53.572;10.170;2022-10-16T07:41:15;13.30;99.90
46091;DHT22;31826;53.572;10.170;2022-10-16T07:43:45;13.30;99.90
46091;DHT22;31826;53.572;10.170;2022-10-16T07:46:11;13.40;99.90
46091;DHT22;31826;53.572;10.170;2022-10-16T07:48:37;13.50;99.90
46091;DHT22;31826;53.572;10.170;2022-10-16T07:51:05;13.50;99.90
46091;DHT22;31826;53.572;10.170;2022-10-16T07:53:31;13.70;99.90
46091;DHT22;31826;53.572;10.170;2022-10-16T07:56:02;13.70;99.90
46091;DHT22;31826;53.572;10.170;2022-10-16T07:58:28;13.80;99.90
46091;DHT22;31826;53.572;10.170;2022-10-16T08:00:55;14.00;99.90
46091;DHT22;31826;53.572;10.170;2022-10-16T08:03:20;14.10;99.90
46091;DHT22;31826;53.572;10.170;2022-10-16T08:05:46;14.20;99.90
46091;DHT22;31826;53.572;10.170;2022-10-16T08:08:14;14.40;99.90
46091;DHT22;31826;53.572;10.170;2022-10-16T08:10:40;14.50;99.90
46091;DHT22;31826;53.572;10.170;2022-10-16T08:13:05;14.50;99.90
46091;DHT22;31826;53.572;10.170;2022-10-16T08:15:31;14.50;99.90
46091;DHT22;31826;53.572;10.170;2022-10-16T08:17:59;14.40;99.90
46091;DHT22;31826;53.572;10.170;2022-10-16T08:20:26;14.40;99.90
46091;DHT22;31826;53.572;10.170;2022-10-16T08:22:52;14.40;99.90
46091;DHT22;31826;53.572;10.170;2022-10-16T08:25:18;14.40;99.90
46091;DHT22;31826;53.572;10.170;2022-10-16T08:27:43;14.30;99.90
46091;DHT22;31826;53.572;10.170;2022-10-16T08:30:10;14.30;99.90
46091;DHT22;31826;53.572;10.170;2022-10-16T08:32:36;14.30;99.90
46091;DHT22;31826;53.572;10.170;2022-10-16T08:35:02;14.30;99.90
46091;DHT22;31826;53.572;10.170;2022-10-16T08:37:31;14.30;99.90
46091;DHT22;31826;53.572;10.170;2022-10-16T08:39:58;14.40;99.90
46091;DHT22;31826;53.572;10.170;2022-10-16T08:42:48;14.40;99.90
46091;DHT22;31826;53.572;10.170;2022-10-16T08:50:40;15.00;99.90
46091;DHT22;31826;53.572;10.170;2022-10-16T08:53:09;15.20;99.90
46091;DHT22;31826;53.572;10.170;2022-10-16T08:55:46;15.20;99.90
46091;DHT22;31826;53.572;10.170;2022-10-16T08:58:21;15.30;99.90
46091;DHT22;31826;53.572;10.170;2022-10-16T09:00:50;15.30;99.90
46091;DHT22;31826;53.572;10.170;2022-10-16T09:11:44;15.80;99.90
46091;DHT22;31826;53.572;10.170;2022-10-16T09:14:33;15.90;99.90
46091;DHT22;31826;53.572;10.170;2022-10-16T09:17:36;16.00;99.90
46091;DHT22;31826;53.572;10.170;2022-10-16T09:20:32;16.10;99.90
46091;DHT22;31826;53.572;10.170;2022-10-16T09:23:26;16.20;99.90
46091;DHT22;31826;53.572;10.170;2022-10-16T09:25:53;16.30;99.90
46091;DHT22;31826;53.572;10.170;2022-10-16T09:28:20;16.30;99.90
46091;DHT22;31826;53.572;10.170;2022-10-16T09:30:47;16.50;99.90
46091;DHT22;31826;53.572;10.170;2022-10-16T09:33:17;16.80;99.90
46091;DHT22;31826;53.572;10.170;2022-10-16T09:35:47;17.30;99.90
46091;DHT22;31826;53.572;10.170;2022-10-16T09:38:36;17.80;99.90
46091;DHT22;31826;53.572;10.170;2022-10-16T09:41:16;18.00;99.90
46091;DHT22;31826;53.572;10.170;2022-10-16T09:43:46;17.80;99.90
46091;DHT22;31826;53.572;10.170;2022-10-16T09:49:49;17.70;99.90
46091;DHT22;31826;53.572;10.170;2022-10-16T09:51:49;17.60;99.90
46091;DHT22;31826;53.572;10.170;2022-10-16T09:54:17;17.70;99.90
46091;DHT22;31826;53.572;10.170;2022-10-16T09:56:43;17.90;99.90
46091;DHT22;31826;53.572;10.170;2022-10-16T09:59:21;18.00;99.90
46091;DHT22;31826;53.572;10.170;2022-10-16T10:01:55;18.30;99.90
46091;DHT22;31826;53.572;10.170;2022-10-16T10:04:25;18.70;99.90
46091;DHT22;31826;53.572;10.170;2022-10-16T10:06:55;19.00;99.90
46091;DHT22;31826;53.572;10.170;2022-10-16T10:09:25;19.60;99.90
46091;DHT22;31826;53.572;10.170;2022-10-16T10:12:02;19.40;99.90
46091;DHT22;31826;53.572;10.170;2022-10-16T10:14:38;19.10;99.90
46091;DHT22;31826;53.572;10.170;2022-10-16T10:22:32;19.60;99.90
46091;DHT22;31826;53.572;10.170;2022-10-16T10:30:22;19.80;99.90
46091;DHT22;31826;53.572;10.170;2022-10-16T10:38:47;21.00;98.20
46091;DHT22;31826;53.572;10.170;2022-10-16T10:41:44;21.30;98.00
46091;DHT22;31826;53.572;10.170;2022-10-16T10:46:51;21.50;95.90
46091;DHT22;31826;53.572;10.170;2022-10-16T10:49:38;21.30;96.40
46091;DHT22;31826;53.572;10.170;2022-10-16T10:55:19;20.80;96.50
46091;DHT22;31826;53.572;10.170;2022-10-16T10:58:29;21.20;96.60
46091;DHT22;31826;53.572;10.170;2022-10-16T11:01:07;21.70;94.90
46091;DHT22;31826;53.572;10.170;2022-10-16T11:06:55;20.90;94.80
46091;DHT22;31826;53.572;10.170;2022-10-16T11:09:44;20.60;95.40
46091;DHT22;31826;53.572;10.170;2022-10-16T11:12:17;20.60;95.30
46091;DHT22;31826;53.572;10.170;2022-10-16T11:20:42;20.30;94.50
46091;DHT22;31826;53.572;10.170;2022-10-16T11:23:50;20.30;95.70
46091;DHT22;31826;53.572;10.170;2022-10-16T11:26:27;20.70;95.40
46091;DHT22;31826;53.572;10.170;2022-10-16T11:29:02;21.10;93.50
46091;DHT22;31826;53.572;10.170;2022-10-16T11:34:34;21.90;93.50
46091;DHT22;31826;53.572;10.170;2022-10-16T11:37:05;21.80;92.40
46091;DHT22;31826;53.572;10.170;2022-10-16T11:39:34;21.50;92.10
46091;DHT22;31826;53.572;10.170;2022-10-16T11:42:22;21.20;93.20
46091;DHT22;31826;53.572;10.170;2022-10-16T11:47:43;20.50;93.50
46091;DHT22;31826;53.572;10.170;2022-10-16T11:50:28;20.00;94.70
46091;DHT22;31826;53.572;10.170;2022-10-16T11:55:39;19.60;95.80
46091;DHT22;31826;53.572;10.170;2022-10-16T11:58:20;19.40;96.90
46091;DHT22;31826;53.572;10.170;2022-10-16T12:03:45;20.10;95.30
46091;DHT22;31826;53.572;10.170;2022-10-16T12:06:27;20.30;94.90
46091;DHT22;31826;53.572;10.170;2022-10-16T12:08:56;20.70;94.60
46091;DHT22;31826;53.572;10.170;2022-10-16T12:17:00;21.10;93.00
46091;DHT22;31826;53.572;10.170;2022-10-16T12:19:28;20.70;94.30
46091;DHT22;31826;53.572;10.170;2022-10-16T12:21:56;21.10;93.80
46091;DHT22;31826;53.572;10.170;2022-10-16T12:24:39;21.50;92.50
46091;DHT22;31826;53.572;10.170;2022-10-16T12:27:32;21.70;91.10
46091;DHT22;31826;53.572;10.170;2022-10-16T12:30:03;22.10;89.10
46091;DHT22;31826;53.572;10.170;2022-10-16T12:32:38;22.10;88.30
46091;DHT22;31826;53.572;10.170;2022-10-16T12:35:06;22.40;85.20
46091;DHT22;31826;53.572;10.170;2022-10-16T12:37:42;22.40;85.40
46091;DHT22;31826;53.572;10.170;2022-10-16T12:40:31;22.60;83.30
46091;DHT22;31826;53.572;10.170;2022-10-16T12:42:59;22.60;84.10
46091;DHT22;31826;53.572;10.170;2022-10-16T12:45:36;22.50;85.00
46091;DHT22;31826;53.572;10.170;2022-10-16T12:48:20;21.70;84.90
46091;DHT22;31826;53.572;10.170;2022-10-16T12:50:47;21.20;87.80
46091;DHT22;31826;53.572;10.170;2022-10-16T12:53:22;20.80;89.90
46091;DHT22;31826;53.572;10.170;2022-10-16T13:01:42;19.90;91.80
46091;DHT22;31826;53.572;10.170;2022-10-16T13:04:50;19.60;91.90
46091;DHT22;31826;53.572;10.170;2022-10-16T13:10:25;19.30;92.80
46091;DHT22;31826;53.572;10.170;2022-10-16T13:15:50;19.20;92.80
46091;DHT22;31826;53.572;10.170;2022-10-16T13:23:51;18.90;93.20
46091;DHT22;31826;53.572;10.170;2022-10-16T13:26:35;18.90;93.90
46091;DHT22;31826;53.572;10.170;2022-10-16T13:29:05;18.90;93.90
46091;DHT22;31826;53.572;10.170;2022-10-16T13:31:31;18.80;93.40
46091;DHT22;31826;53.572;10.170;2022-10-16T13:33:58;18.90;94.30
46091;DHT22;31826;53.572;10.170;2022-10-16T13:36:51;18.80;94.30
46091;DHT22;31826;53.572;10.170;2022-10-16T13:39:20;18.70;94.60
46091;DHT22;31826;53.572;10.170;2022-10-16T13:44:35;18.70;94.20
46091;DHT22;31826;53.572;10.170;2022-10-16T13:47:02;18.60;94.90
46091;DHT22;31826;53.572;10.170;2022-10-16T13:49:28;18.40;94.80
46091;DHT22;31826;53.572;10.170;2022-10-16T13:51:55;18.30;95.20
46091;DHT22;31826;53.572;10.170;2022-10-16T13:54:21;18.30;95.50
46091;DHT22;31826;53.572;10.170;2022-10-16T13:56:47;18.30;96.00
46091;DHT22;31826;53.572;10.170;2022-10-16T13:59:23;18.30;95.60
46091;DHT22;31826;53.572;10.170;2022-10-16T14:01:51;18.30;96.40
46091;DHT22;31826;53.572;10.170;2022-10-16T14:04:19;18.20;95.50
46091;DHT22;31826;53.572;10.170;2022-10-16T14:06:46;18.30;95.30
46091;DHT22;31826;53.572;10.170;2022-10-16T14:09:26;18.40;95.40
46091;DHT22;31826;53.572;10.170;2022-10-16T14:12:01;18.40;94.20
46091;DHT22;31826;53.572;10.170;2022-10-16T14:14:35;18.40;94.30
46091;DHT22;31826;53.572;10.170;2022-10-16T14:17:05;18.40;94.50
46091;DHT22;31826;53.572;10.170;2022-10-16T14:19:31;18.40;94.60
46091;DHT22;31826;53.572;10.170;2022-10-16T14:21:58;18.30;94.40
46091;DHT22;31826;53.572;10.170;2022-10-16T14:24:30;18.30;94.80
46091;DHT22;31826;53.572;10.170;2022-10-16T14:26:57;18.10;95.20
46091;DHT22;31826;53.572;10.170;2022-10-16T14:29:25;18.00;95.60
46091;DHT22;31826;53.572;10.170;2022-10-16T14:31:58;18.00;96.00
46091;DHT22;31826;53.572;10.170;2022-10-16T14:34:30;17.90;96.60
46091;DHT22;31826;53.572;10.170;2022-10-16T14:37:09;17.90;96.80
46091;DHT22;31826;53.572;10.170;2022-10-16T14:39:39;17.90;97.10
46091;DHT22;31826;53.572;10.170;2022-10-16T14:42:14;17.90;97.20
46091;DHT22;31826;53.572;10.170;2022-10-16T14:44:41;17.90;97.90
46091;DHT22;31826;53.572;10.170;2022-10-16T14:47:13;17.80;97.80
46091;DHT22;31826;53.572;10.170;2022-10-16T14:49:42;17.80;97.80
46091;DHT22;31826;53.572;10.170;2022-10-16T14:52:14;17.90;97.70
46091;DHT22;31826;53.572;10.170;2022-10-16T14:54:40;17.90;97.80
46091;DHT22;31826;53.572;10.170;2022-10-16T14:57:19;17.90;96.90
46091;DHT22;31826;53.572;10.170;2022-10-16T14:59:46;18.00;96.30
46091;DHT22;31826;53.572;10.170;2022-10-16T15:02:30;18.00;96.20
46091;DHT22;31826;53.572;10.170;2022-10-16T15:04:57;17.90;96.20
46091;DHT22;31826;53.572;10.170;2022-10-16T15:07:23;17.90;96.70
46091;DHT22;31826;53.572;10.170;2022-10-16T15:09:49;17.80;97.00
46091;DHT22;31826;53.572;10.170;2022-10-16T15:12:15;17.80;96.40
46091;DHT22;31826;53.572;10.170;2022-10-16T15:14:41;17.80;96.60
46091;DHT22;31826;53.572;10.170;2022-10-16T15:17:10;17.70;97.00
46091;DHT22;31826;53.572;10.170;2022-10-16T15:19:35;17.80;97.50
46091;DHT22;31826;53.572;10.170;2022-10-16T15:22:01;17.80;97.30
46091;DHT22;31826;53.572;10.170;2022-10-16T15:24:27;17.70;97.60
46091;DHT22;31826;53.572;10.170;2022-10-16T15:26:52;17.60;98.40
46091;DHT22;31826;53.572;10.170;2022-10-16T15:29:18;17.60;98.20
46091;DHT22;31826;53.572;10.170;2022-10-16T15:31:44;17.50;98.20
46091;DHT22;31826;53.572;10.170;2022-10-16T15:34:12;17.50;98.10
46091;DHT22;31826;53.572;10.170;2022-10-16T15:36:38;17.40;98.30
46091;DHT22;31826;53.572;10.170;2022-10-16T15:39:10;17.40;98.40
46091;DHT22;31826;53.572;10.170;2022-10-16T15:41:37;17.40;98.50
46091;DHT22;31826;53.572;10.170;2022-10-16T15:44:03;17.20;99.30
46091;DHT22;31826;53.572;10.170;2022-10-16T15:46:29;17.10;99.80
46091;DHT22;31826;53.572;10.170;2022-10-16T15:48:57;17.10;99.50
46091;DHT22;31826;53.572;10.170;2022-10-16T15:51:24;17.10;99.60
46091;DHT22;31826;53.572;10.170;2022-10-16T15:53:50;17.00;99.40
46091;DHT22;31826;53.572;10.170;2022-10-16T15:56:17;16.90;99.70
46091;DHT22;31826;53.572;10.170;2022-10-16T15:58:43;16.90;99.90
46091;DHT22;31826;53.572;10.170;2022-10-16T16:01:09;16.80;99.90
46091;DHT22;31826;53.572;10.170;2022-10-16T16:03:37;16.70;99.90
46091;DHT22;31826;53.572;10.170;2022-10-16T16:06:07;16.80;99.90
46091;DHT22;31826;53.572;10.170;2022-10-16T16:08:34;16.70;99.90
46091;DHT22;31826;53.572;10.170;2022-10-16T16:11:01;16.60;99.90
46091;DHT22;31826;53.572;10.170;2022-10-16T16:13:28;16.50;99.90
46091;DHT22;31826;53.572;10.170;2022-10-16T16:15:54;16.40;99.90
46091;DHT22;31826;53.572;10.170;2022-10-16T16:18:19;16.40;99.90
46091;DHT22;31826;53.572;10.170;2022-10-16T16:20:45;16.30;99.90
46091;DHT22;31826;53.572;10.170;2022-10-16T16:23:11;16.30;99.90
46091;DHT22;31826;53.572;10.170;2022-10-16T16:25:37;16.20;99.90
46091;DHT22;31826;53.572;10.170;2022-10-16T16:28:02;16.10;99.90
46091;DHT22;31826;53.572;10.170;2022-10-16T16:30:28;16.10;99.90
46091;DHT22;31826;53.572;10.170;2022-10-16T16:32:54;16.00;99.90
46091;DHT22;31826;53.572;10.170;2022-10-16T16:35:19;16.00;99.90
46091;DHT22;31826;53.572;10.170;2022-10-16T16:37:47;15.90;99.90
46091;DHT22;31826;53.572;10.170;2022-10-16T16:40:13;15.80;99.90
46091;DHT22;31826;53.572;10.170;2022-10-16T16:42:39;15.60;99.90
46091;DHT22;31826;53.572;10.170;2022-10-16T16:45:05;15.40;99.90
46091;DHT22;31826;53.572;10.170;2022-10-16T16:47:31;15.20;99.90
46091;DHT22;31826;53.572;10.170;2022-10-16T16:49:57;15.00;99.90
46091;DHT22;31826;53.572;10.170;2022-10-16T16:52:22;14.90;99.90
46091;DHT22;31826;53.572;10.170;2022-10-16T16:54:48;14.90;99.90
46091;DHT22;31826;53.572;10.170;2022-10-16T16:57:20;14.80;99.90
46091;DHT22;31826;53.572;10.170;2022-10-16T16:59:46;14.70;99.90
46091;DHT22;31826;53.572;10.170;2022-10-16T17:02:12;14.70;99.90
46091;DHT22;31826;53.572;10.170;2022-10-16T17:04:37;14.70;99.90